Time;durP1;ratioP1;P1;durP2;ratioP2;P2;SDS_P1;SDS_P2;PMS_P1;PMS_P2;Temp;Humidity;BMP_temperature;BMP_pressure;BME280_temperature;BME280_humidity;BME280_pressure;Samples;Min_cycle;Max_cycle;Signal;HPM_P1;HPM_P2
2023/07/14 00:05:00;;;;;;;36.55;24.38;;;;;;;;;;10548647;28;20817;-84
2023/07/14 00:10:01;;;;;;;31.75;18.80;;;;;;;;;;10563401;28;20035;-83
2023/07/14 00:15:02;;;;;;;27.33;18.17;;;;;;;;;;10564753;28;20114;-82
2023/07/14 00:20:05;;;;;;;30.73;18.27;;;;;;;;;;10553773;28;20035;-82
2023/07/14 00:25:11;;;;;;;23.00;16.55;;;;;;;;;;10541027;28;20077;-82
2023/07/14 00:30:12;;;;;;;;;;;;;;;;;;10564117;28;20079;-82
2023/07/14 00:35:31;;;;;;;33.47;19.40;;;;;;;;;;10561627;28;19911;-83
2023/07/14 00:40:37;;;;;;;30.25;19.58;;;;;;;;;;10532515;28;20032;-82
2023/07/14 00:45:39;;;;;;;28.88;19.98;;;;;;;;;;10544682;28;20028;-82
2023/07/14 00:51:00;;;;;;;36.13;20.38;;;;;;;;;;10538193;28;20045;-82
2023/07/14 00:56:12;;;;;;;31.15;19.52;;;;;;;;;;10552860;28;20044;-82
2023/07/14 01:01:21;;;;;;;32.92;19.05;;;;;;;;;;10548471;28;20085;-82
2023/07/14 01:06:27;;;;;;;28.50;18.85;;;;;;;;;;10572378;28;20428;-82
2023/07/14 01:11:33;;;;;;;41.90;22.98;;;;;;;;;;10545553;28;20032;-82
2023/07/14 01:16:38;;;;;;;52.38;24.65;;;;;;;;;;10543142;28;20035;-82
2023/07/14 01:21:39;;;;;;;28.48;19.85;;;;;;;;;;10544633;28;20106;-82
2023/07/14 01:26:53;;;;;;;31.77;21.17;;;;;;;;;;10555260;28;20024;-82
2023/07/14 01:31:54;;;;;;;61.50;25.63;;;;;;;;;;10536824;28;20039;-82
2023/07/14 01:36:58;;;;;;;54.05;31.08;;;;;;;;;;10568758;28;20160;-82
2023/07/14 01:41:59;;;;;;;68.70;31.92;;;;;;;;;;10545268;28;20418;-82
2023/07/14 01:47:00;;;;;;;52.97;32.10;;;;;;;;;;10539365;28;20031;-82
2023/07/14 01:52:03;;;;;;;43.03;28.20;;;;;;;;;;10569147;28;20067;-82
2023/07/14 01:57:07;;;;;;;116.28;37.38;;;;;;;;;;10557265;28;20031;-82
2023/07/14 02:02:18;;;;;;;70.13;34.00;;;;;;;;;;10526816;28;20039;-82
2023/07/14 02:07:20;;;;;;;56.60;31.42;;;;;;;;;;10537211;28;20050;-82
2023/07/14 02:12:28;;;;;;;58.60;30.63;;;;;;;;;;10556331;28;20031;-82
2023/07/14 02:17:33;;;;;;;46.75;29.52;;;;;;;;;;10530320;28;20388;-81
2023/07/14 02:22:37;;;;;;;46.17;29.70;;;;;;;;;;10559495;28;20115;-83
2023/07/14 02:27:38;;;;;;;46.15;27.70;;;;;;;;;;10535790;28;20154;-82
2023/07/14 02:32:41;;;;;;;43.70;25.50;;;;;;;;;;10532473;28;20039;-82
2023/07/14 02:38:03;;;;;;;50.38;28.48;;;;;;;;;;10526521;28;20457;-82
2023/07/14 02:43:05;;;;;;;46.45;28.67;;;;;;;;;;10563090;28;20084;-81
2023/07/14 02:48:09;;;;;;;36.00;24.80;;;;;;;;;;10527023;28;20039;-83
2023/07/14 02:53:10;;;;;;;53.53;31.52;;;;;;;;;;10565135;28;20058;-82
2023/07/14 02:58:11;;;;;;;62.42;36.35;;;;;;;;;;10530872;22;20052;-83
2023/07/14 03:03:13;;;;;;;71.68;38.28;;;;;;;;;;10488358;28;20028;-82
2023/07/14 03:08:15;;;;;;;50.97;32.80;;;;;;;;;;10497330;28;20475;-82
2023/07/14 03:13:17;;;;;;;45.45;29.75;;;;;;;;;;10484898;28;20020;-83
2023/07/14 03:18:18;;;;;;;50.80;32.42;;;;;;;;;;10495926;28;20067;-82
2023/07/14 03:23:19;;;;;;;68.68;34.08;;;;;;;;;;10483243;28;20116;-82
2023/07/14 03:28:21;;;;;;;75.30;38.15;;;;;;;;;;10494944;28;20040;-81
2023/07/14 03:33:23;;;;;;;63.75;40.42;;;;;;;;;;10492430;28;20036;-83
2023/07/14 03:38:24;;;;;;;55.00;34.80;;;;;;;;;;10522657;22;20051;-83
2023/07/14 03:43:25;;;;;;;46.28;31.05;;;;;;;;;;10539095;28;20032;-82
2023/07/14 03:48:26;;;;;;;68.13;38.63;;;;;;;;;;10538949;28;20039;-82
2023/07/14 03:53:27;;;;;;;53.67;32.88;;;;;;;;;;10569703;28;20495;-83
2023/07/14 03:58:28;;;;;;;48.05;31.52;;;;;;;;;;10538135;28;20043;-83
2023/07/14 04:03:29;;;;;;;48.85;31.92;;;;;;;;;;10543105;28;20475;-82
2023/07/14 04:08:40;;;;;;;58.53;34.25;;;;;;;;;;10548043;28;20043;-82
2023/07/14 04:13:41;;;;;;;50.28;33.90;;;;;;;;;;10537340;28;20024;-81
2023/07/14 04:18:42;;;;;;;47.65;33.00;;;;;;;;;;10523702;28;20071;-81
2023/07/14 04:23:43;;;;;;;49.20;33.22;;;;;;;;;;10531523;28;20027;-82
2023/07/14 04:28:44;;;;;;;44.70;33.65;;;;;;;;;;10531618;28;20036;-81
2023/07/14 04:33:46;;;;;;;42.03;31.98;;;;;;;;;;10529298;28;20105;-81
2023/07/14 04:39:04;;;;;;;50.70;34.45;;;;;;;;;;10529844;28;20064;-82
2023/07/14 04:44:07;;;;;;;35.58;28.63;;;;;;;;;;10521138;28;20542;-82
2023/07/14 04:49:09;;;;;;;35.40;26.63;;;;;;;;;;10511885;28;20039;-82
2023/07/14 04:54:10;;;;;;;34.92;26.30;;;;;;;;;;10518377;28;20028;-82
2023/07/14 04:59:11;;;;;;;36.83;25.42;;;;;;;;;;10527281;28;20031;-82
2023/07/14 05:04:12;;;;;;;33.53;23.90;;;;;;;;;;10518258;28;20028;-84
2023/07/14 05:09:13;;;;;;;34.17;25.75;;;;;;;;;;10523815;28;20032;-83
2023/07/14 05:14:15;;;;;;;30.65;24.15;;;;;;;;;;10523759;28;20046;-82
2023/07/14 05:19:16;;;;;;;29.85;22.90;;;;;;;;;;10524941;28;20051;-83
2023/07/14 05:24:17;;;;;;;29.67;22.27;;;;;;;;;;10518313;28;20031;-83
2023/07/14 05:29:19;;;;;;;30.50;22.35;;;;;;;;;;10529355;28;20136;-83
2023/07/14 05:34:20;;;;;;;25.63;19.85;;;;;;;;;;10522737;28;20042;-83
2023/07/14 05:39:21;;;;;;;24.25;17.77;;;;;;;;;;10509656;28;20049;-83
2023/07/14 05:44:22;;;;;;;25.58;18.83;;;;;;;;;;10521730;28;20032;-82
2023/07/14 05:49:23;;;;;;;22.77;17.20;;;;;;;;;;10537958;28;20042;-82
2023/07/14 05:54:24;;;;;;;20.33;13.68;;;;;;;;;;10517527;28;20039;-83
2023/07/14 05:59:26;;;;;;;17.27;12.13;;;;;;;;;;10521063;28;20023;-85
2023/07/14 06:04:27;;;;;;;16.25;12.57;;;;;;;;;;10540187;22;21449;-83
2023/07/14 06:09:32;;;;;;;18.25;11.88;;;;;;;;;;10545478;28;20079;-83
2023/07/14 06:14:33;;;;;;;;;;;;;;;;;;10531451;28;20110;-83
2023/07/14 06:19:34;;;;;;;15.48;7.47;;;;;;;;;;10531048;28;19908;-82
2023/07/14 06:24:35;;;;;;;14.80;7.05;;;;;;;;;;10549540;28;20036;-83
2023/07/14 06:29:36;;;;;;;12.32;6.63;;;;;;;;;;10539352;28;20518;-83
2023/07/14 06:34:37;;;;;;;10.55;7.13;;;;;;;;;;10517515;28;20024;-87
2023/07/14 06:39:38;;;;;;;14.98;6.43;;;;;;;;;;10532091;28;20380;-86
2023/07/14 06:44:39;;;;;;;9.48;6.10;;;;;;;;;;10526996;28;20044;-87
2023/07/14 06:49:40;;;;;;;9.48;5.13;;;;;;;;;;10526464;28;20039;-86
2023/07/14 06:54:41;;;;;;;11.57;6.07;;;;;;;;;;10534153;28;20689;-86
2023/07/14 06:59:42;;;;;;;12.55;6.60;;;;;;;;;;10551616;28;20026;-86
2023/07/14 07:04:43;;;;;;;13.77;6.03;;;;;;;;;;10528609;28;20055;-87
2023/07/14 07:09:44;;;;;;;10.48;5.50;;;;;;;;;;10548355;28;20044;-86
2023/07/14 07:14:45;;;;;;;8.95;4.72;;;;;;;;;;10525762;28;20034;-86
2023/07/14 07:19:46;;;;;;;10.02;4.65;;;;;;;;;;10540198;28;20035;-86
2023/07/14 07:24:47;;;;;;;8.68;4.80;;;;;;;;;;10554065;28;20054;-87
2023/07/14 07:29:50;;;;;;;6.97;4.10;;;;;;;;;;10531533;28;20042;-87
2023/07/14 07:34:51;;;;;;;6.55;4.47;;;;;;;;;;10534831;28;20020;-86
2023/07/14 07:39:54;;;;;;;5.18;4.00;;;;;;;;;;10540488;28;20040;-86
2023/07/14 07:44:55;;;;;;;10.75;4.40;;;;;;;;;;10523322;28;20535;-90
2023/07/14 07:49:56;;;;;;;9.02;4.10;;;;;;;;;;10517862;28;20047;-89
2023/07/14 07:54:57;;;;;;;7.65;4.43;;;;;;;;;;10527380;28;20126;-87
2023/07/14 08:00:01;;;;;;;6.63;3.90;;;;;;;;;;10525945;28;20028;-86
2023/07/14 08:05:02;;;;;;;8.68;4.18;;;;;;;;;;10526859;28;20151;-85
2023/07/14 08:10:04;;;;;;;6.75;3.67;;;;;;;;;;10515260;28;20036;-85
2023/07/14 08:15:05;;;;;;;8.05;3.75;;;;;;;;;;10563207;28;20042;-86
2023/07/14 08:20:07;;;;;;;8.10;3.90;;;;;;;;;;10541916;28;20028;-83
2023/07/14 08:25:09;;;;;;;5.20;3.25;;;;;;;;;;10567048;28;20046;-87
2023/07/14 08:30:10;;;;;;;9.77;3.60;;;;;;;;;;10534563;28;20032;-86
2023/07/14 08:35:12;;;;;;;8.98;3.90;;;;;;;;;;10555010;28;20028;-86
2023/07/14 08:40:14;;;;;;;6.75;2.92;;;;;;;;;;10524304;28;20025;-83
2023/07/14 08:45:20;;;;;;;10.43;3.80;;;;;;;;;;10565855;28;20023;-84
2023/07/14 08:50:23;;;;;;;5.72;2.97;;;;;;;;;;10573623;28;20415;-84
2023/07/14 08:55:27;;;;;;;5.13;2.75;;;;;;;;;;10574352;28;20062;-84
2023/07/14 09:00:33;;;;;;;7.55;3.20;;;;;;;;;;10573530;28;20038;-84
2023/07/14 09:05:36;;;;;;;8.30;3.15;;;;;;;;;;10573238;28;20043;-85
2023/07/14 09:10:48;;;;;;;6.72;2.88;;;;;;;;;;10573263;28;20027;-85
2023/07/14 09:15:50;;;;;;;1.75;1.33;;;;;;;;;;10573053;28;20042;-84
2023/07/14 09:21:06;;;;;;;4.63;1.80;;;;;;;;;;10546222;28;20027;-88
2023/07/14 09:26:07;;;;;;;3.58;2.10;;;;;;;;;;10572153;27;20030;-87
2023/07/14 09:31:21;;;;;;;6.78;2.65;;;;;;;;;;10570848;28;20036;-84
2023/07/14 09:36:22;;;;;;;4.93;2.55;;;;;;;;;;10570852;28;20031;-89
2023/07/14 09:41:24;;;;;;;3.58;2.13;;;;;;;;;;10540854;28;20039;-85
2023/07/14 09:46:26;;;;;;;5.03;2.83;;;;;;;;;;10551759;28;20031;-85
2023/07/14 09:51:27;;;;;;;5.72;2.78;;;;;;;;;;10549278;28;20668;-85
2023/07/14 09:56:30;;;;;;;3.28;1.98;;;;;;;;;;10542611;28;20024;-87
2023/07/14 10:01:32;;;;;;;10.23;2.47;;;;;;;;;;10529558;28;20035;-86
2023/07/14 10:06:33;;;;;;;5.45;2.03;;;;;;;;;;10543642;28;20112;-86
2023/07/14 10:11:40;;;;;;;6.32;2.38;;;;;;;;;;10527036;28;20032;-86
2023/07/14 10:16:42;;;;;;;4.25;2.30;;;;;;;;;;10526805;28;20078;-86
2023/07/14 10:21:54;;;;;;;5.70;2.35;;;;;;;;;;10513955;28;20107;-87
2023/07/14 10:26:57;;;;;;;8.93;3.38;;;;;;;;;;10523608;28;20123;-86
2023/07/14 10:32:02;;;;;;;6.97;2.85;;;;;;;;;;10535916;28;20042;-83
2023/07/14 10:37:09;;;;;;;4.22;1.98;;;;;;;;;;10537595;28;20027;-85
2023/07/14 10:42:18;;;;;;;4.40;1.48;;;;;;;;;;10548112;28;20791;-84
2023/07/14 10:47:23;;;;;;;1.85;1.65;;;;;;;;;;10558236;28;20027;-84
2023/07/14 10:52:27;;;;;;;5.15;2.15;;;;;;;;;;10550998;28;20409;-85
2023/07/14 10:57:40;;;;;;;2.05;1.55;;;;;;;;;;10552999;28;20092;-88
2023/07/14 11:02:43;;;;;;;4.50;2.40;;;;;;;;;;10544825;28;20056;-83
2023/07/14 11:07:44;;;;;;;2.33;1.75;;;;;;;;;;10530216;28;20043;-85
2023/07/14 11:12:59;;;;;;;3.45;1.88;;;;;;;;;;10557168;28;20510;-84
2023/07/14 11:18:06;;;;;;;2.42;1.75;;;;;;;;;;10530739;28;20027;-84
2023/07/14 11:23:07;;;;;;;4.05;2.30;;;;;;;;;;10544143;28;20028;-84
2023/07/14 11:28:20;;;;;;;4.30;2.05;;;;;;;;;;10538303;28;20054;-85
2023/07/14 11:33:45;;;;;;;4.13;2.22;;;;;;;;;;10525329;28;20028;-86
2023/07/14 11:38:46;;;;;;;;;;;;;;;;;;10505592;28;20487;-86
2023/07/14 11:43:48;;;;;;;7.18;2.08;;;;;;;;;;10524446;28;19939;-88
2023/07/14 11:48:52;;;;;;;1.60;1.50;;;;;;;;;;10535613;28;20372;-86
2023/07/14 11:54:03;;;;;;;3.70;1.75;;;;;;;;;;10528429;28;20865;-85
2023/07/14 11:59:16;;;;;;;3.03;2.17;;;;;;;;;;10532025;28;20032;-84
2023/07/14 12:04:26;;;;;;;5.82;2.53;;;;;;;;;;10521308;28;20106;-86
2023/07/14 12:09:27;;;;;;;4.43;2.08;;;;;;;;;;10531810;28;20039;-85
2023/07/14 12:14:45;;;;;;;3.88;2.38;;;;;;;;;;10531343;28;20024;-85
2023/07/14 12:19:49;;;;;;;5.65;2.75;;;;;;;;;;10543369;28;20024;-86
2023/07/14 12:24:51;;;;;;;5.03;2.40;;;;;;;;;;10531221;28;20039;-86
2023/07/14 12:30:00;;;;;;;4.10;2.35;;;;;;;;;;10531449;28;20036;-88
2023/07/14 12:35:01;;;;;;;4.55;2.35;;;;;;;;;;10533203;28;20484;-86
2023/07/14 12:40:04;;;;;;;5.97;2.75;;;;;;;;;;10527603;28;20035;-85
2023/07/14 12:45:05;;;;;;;2.72;2.15;;;;;;;;;;10530250;28;20028;-85
2023/07/14 12:50:14;;;;;;;3.33;2.30;;;;;;;;;;10530032;28;20032;-89
2023/07/14 12:55:18;;;;;;;4.05;2.45;;;;;;;;;;10530827;28;20039;-84
2023/07/14 13:00:19;;;;;;;4.15;2.38;;;;;;;;;;10530383;28;20035;-86
2023/07/14 13:05:21;;;;;;;5.43;2.53;;;;;;;;;;10525453;28;20076;-85
2023/07/14 13:10:53;;;;;;;2.13;1.92;;;;;;;;;;10538415;28;20040;-85
2023/07/14 13:15:55;;;;;;;4.55;2.42;;;;;;;;;;10536307;28;20040;-85
2023/07/14 13:20:57;;;;;;;8.32;2.20;;;;;;;;;;10564709;28;20023;-85
2023/07/14 13:26:00;;;;;;;4.28;2.63;;;;;;;;;;10551210;28;20092;-86
2023/07/14 13:31:03;;;;;;;4.50;2.00;;;;;;;;;;10567469;28;20402;-86
2023/07/14 13:36:07;;;;;;;4.28;1.95;;;;;;;;;;10553352;28;20027;-85
2023/07/14 13:41:10;;;;;;;1.90;1.70;;;;;;;;;;10571426;28;20394;-86
2023/07/14 13:46:24;;;;;;;2.97;1.90;;;;;;;;;;10542219;28;20031;-84
2023/07/14 13:51:29;;;;;;;5.15;2.08;;;;;;;;;;10536393;28;20039;-85
2023/07/14 13:56:30;;;;;;;5.05;2.80;;;;;;;;;;10557193;28;20031;-86
2023/07/14 14:01:32;;;;;;;5.30;2.88;;;;;;;;;;10525645;28;20040;-85
2023/07/14 14:06:33;;;;;;;5.28;2.13;;;;;;;;;;10549527;28;20122;-87
2023/07/14 14:11:34;;;;;;;3.05;2.20;;;;;;;;;;10551648;27;20415;-84
2023/07/14 14:16:35;;;;;;;5.15;2.17;;;;;;;;;;10545385;28;20033;-87
2023/07/14 14:21:36;;;;;;;4.78;2.03;;;;;;;;;;10555694;28;20035;-85
2023/07/14 14:26:37;;;;;;;4.70;2.08;;;;;;;;;;10546785;28;20032;-84
2023/07/14 14:31:39;;;;;;;3.58;1.98;;;;;;;;;;10532375;28;20043;-84
2023/07/14 14:36:40;;;;;;;5.10;1.80;;;;;;;;;;10540784;28;20757;-84
2023/07/14 14:41:41;;;;;;;2.55;2.10;;;;;;;;;;10527084;28;20027;-87
2023/07/14 14:46:42;;;;;;;2.40;2.10;;;;;;;;;;10526452;28;20085;-85
2023/07/14 14:51:43;;;;;;;4.68;2.20;;;;;;;;;;10526397;28;20039;-88
2023/07/14 14:56:45;;;;;;;3.15;2.38;;;;;;;;;;10524965;28;20035;-86
2023/07/14 15:01:48;;;;;;;3.83;2.20;;;;;;;;;;10526121;28;20048;-85
2023/07/14 15:06:49;;;;;;;2.70;2.20;;;;;;;;;;10524706;28;20051;-85
2023/07/14 15:11:52;;;;;;;5.03;2.40;;;;;;;;;;10524539;28;20051;-83
2023/07/14 15:16:53;;;;;;;4.65;2.33;;;;;;;;;;10527288;28;20039;-86
2023/07/14 15:21:54;;;;;;;7.15;3.92;;;;;;;;;;10530770;28;20024;-84
2023/07/14 15:26:55;;;;;;;6.65;2.60;;;;;;;;;;10539897;28;20032;-86
2023/07/14 15:31:56;;;;;;;4.97;2.00;;;;;;;;;;10553598;28;20394;-85
2023/07/14 15:36:57;;;;;;;2.53;2.33;;;;;;;;;;10547785;28;20035;-85
2023/07/14 15:42:01;;;;;;;4.18;2.25;;;;;;;;;;10526768;28;20668;-86
2023/07/14 15:47:02;;;;;;;5.87;2.40;;;;;;;;;;10540247;28;20024;-85
2023/07/14 15:52:04;;;;;;;3.10;2.20;;;;;;;;;;10538263;28;20036;-85
2023/07/14 15:57:06;;;;;;;6.35;2.63;;;;;;;;;;10537134;28;20067;-85
2023/07/14 16:02:14;;;;;;;3.13;2.30;;;;;;;;;;10537000;28;20035;-85
2023/07/14 16:07:17;;;;;;;4.30;2.65;;;;;;;;;;10525283;22;20099;-87
2023/07/14 16:12:18;;;;;;;4.05;2.70;;;;;;;;;;10510830;28;20032;-84
2023/07/14 16:17:19;;;;;;;3.47;2.22;;;;;;;;;;10540668;28;20458;-86
2023/07/14 16:22:21;;;;;;;4.20;2.25;;;;;;;;;;10538088;28;20036;-86
2023/07/14 16:27:24;;;;;;;3.80;2.17;;;;;;;;;;10525671;28;20028;-85
2023/07/14 16:32:25;;;;;;;3.47;2.30;;;;;;;;;;10535835;28;20473;-86
2023/07/14 16:37:28;;;;;;;4.90;2.67;;;;;;;;;;10532696;28;20024;-85
2023/07/14 16:42:29;;;;;;;4.47;2.13;;;;;;;;;;10530556;28;20031;-86
2023/07/14 16:47:30;;;;;;;3.65;2.25;;;;;;;;;;10530913;28;20043;-86
2023/07/14 16:52:31;;;;;;;3.75;2.22;;;;;;;;;;10535005;28;20024;-86
2023/07/14 16:57:32;;;;;;;5.72;2.88;;;;;;;;;;10571670;28;20049;-85
2023/07/14 17:02:34;;;;;;;3.58;2.67;;;;;;;;;;10545310;28;20032;-86
2023/07/14 17:07:35;;;;;;;3.97;2.42;;;;;;;;;;10530024;28;20055;-85
2023/07/14 17:12:36;;;;;;;3.95;2.50;;;;;;;;;;10531043;28;20067;-87
2023/07/14 17:17:37;;;;;;;5.75;2.45;;;;;;;;;;10524091;28;20030;-85
2023/07/14 17:22:39;;;;;;;4.13;2.60;;;;;;;;;;10564241;28;20023;-86
2023/07/14 17:27:40;;;;;;;2.83;2.33;;;;;;;;;;10536359;28;20096;-86
2023/07/14 17:32:42;;;;;;;3.80;2.80;;;;;;;;;;10528941;28;20135;-86
2023/07/14 17:37:44;;;;;;;6.57;3.28;;;;;;;;;;10527779;28;20027;-85
2023/07/14 17:42:45;;;;;;;4.00;2.58;;;;;;;;;;10526498;28;20036;-86
2023/07/14 17:47:46;;;;;;;6.40;3.20;;;;;;;;;;10525465;28;20032;-86
2023/07/14 17:52:49;;;;;;;4.15;2.88;;;;;;;;;;10528959;28;20040;-85
2023/07/14 17:57:53;;;;;;;5.50;2.70;;;;;;;;;;10528948;28;20052;-85
2023/07/14 18:02:57;;;;;;;7.50;3.10;;;;;;;;;;10531502;28;20042;-86
2023/07/14 18:07:58;;;;;;;4.93;3.15;;;;;;;;;;10528597;28;20055;-87
2023/07/14 18:12:59;;;;;;;5.68;3.70;;;;;;;;;;10532732;28;20039;-85
2023/07/14 18:18:04;;;;;;;8.70;6.45;;;;;;;;;;10539922;28;20494;-86
2023/07/14 18:23:05;;;;;;;9.47;6.40;;;;;;;;;;10572394;23;20507;-85
2023/07/14 18:28:10;;;;;;;9.10;5.65;;;;;;;;;;10533113;28;20032;-86
2023/07/14 18:33:16;;;;;;;7.28;3.90;;;;;;;;;;10526087;28;20043;-85
2023/07/14 18:38:17;;;;;;;6.55;3.42;;;;;;;;;;10532170;28;20028;-85
2023/07/14 18:43:35;;;;;;;5.65;3.20;;;;;;;;;;10541196;28;20033;-85
2023/07/14 18:48:36;;;;;;;4.70;3.13;;;;;;;;;;10534437;28;20435;-85
2023/07/14 18:53:37;;;;;;;4.97;3.05;;;;;;;;;;10547926;28;20030;-85
2023/07/14 18:58:39;;;;;;;5.63;3.45;;;;;;;;;;10544339;28;20028;-85
2023/07/14 19:03:40;;;;;;;6.88;4.13;;;;;;;;;;10532009;28;20392;-85
2023/07/14 19:08:41;;;;;;;4.88;3.95;;;;;;;;;;10537424;28;20044;-86
2023/07/14 19:13:43;;;;;;;5.60;4.55;;;;;;;;;;10529657;28;20016;-85
2023/07/14 19:18:44;;;;;;;10.27;4.82;;;;;;;;;;10536454;28;20028;-83
2023/07/14 19:23:45;;;;;;;6.47;4.15;;;;;;;;;;10524245;28;20827;-84
2023/07/14 19:28:46;;;;;;;6.60;5.13;;;;;;;;;;10566750;28;20040;-87
2023/07/14 19:33:48;;;;;;;8.27;4.63;;;;;;;;;;10541974;28;20031;-85
2023/07/14 19:38:50;;;;;;;5.30;4.32;;;;;;;;;;10535692;28;20479;-85
2023/07/14 19:43:51;;;;;;;6.75;4.47;;;;;;;;;;10557075;28;20095;-86
2023/07/14 19:48:52;;;;;;;6.40;4.43;;;;;;;;;;10552659;28;20114;-85
2023/07/14 19:53:54;;;;;;;6.43;5.13;;;;;;;;;;10553983;28;20123;-85
2023/07/14 19:58:55;;;;;;;8.32;5.15;;;;;;;;;;10556429;28;20450;-85
2023/07/14 20:03:57;;;;;;;8.32;5.00;;;;;;;;;;10541422;28;20028;-86
2023/07/14 20:09:03;;;;;;;10.35;4.68;;;;;;;;;;10548835;28;20498;-85
2023/07/14 20:14:21;;;;;;;8.15;4.93;;;;;;;;;;10541600;28;20380;-85
2023/07/14 20:19:22;;;;;;;6.55;4.70;;;;;;;;;;10560892;28;20034;-87
2023/07/14 20:24:23;;;;;;;5.38;4.63;;;;;;;;;;10539437;28;20051;-85
2023/07/14 20:29:24;;;;;;;11.25;6.13;;;;;;;;;;10531754;28;20036;-85
2023/07/14 20:34:25;;;;;;;8.60;5.18;;;;;;;;;;10530371;28;20027;-84
2023/07/14 20:39:29;;;;;;;10.57;5.97;;;;;;;;;;10534649;28;20609;-86
2023/07/14 20:44:30;;;;;;;11.75;5.53;;;;;;;;;;10553234;28;20030;-84
2023/07/14 20:49:31;;;;;;;7.88;5.25;;;;;;;;;;10553775;28;20065;-85
2023/07/14 20:54:32;;;;;;;12.93;6.82;;;;;;;;;;10561047;28;20059;-85
2023/07/14 20:59:33;;;;;;;13.73;6.25;;;;;;;;;;10552254;28;20039;-85
2023/07/14 21:04:34;;;;;;;10.48;6.35;;;;;;;;;;10538667;28;20036;-86
2023/07/14 21:09:36;;;;;;;12.27;6.57;;;;;;;;;;10526625;28;20482;-85
2023/07/14 21:14:37;;;;;;;12.10;7.18;;;;;;;;;;10534407;28;20055;-84
2023/07/14 21:19:38;;;;;;;12.45;6.50;;;;;;;;;;10549506;27;20538;-85
2023/07/14 21:24:39;;;;;;;10.88;6.70;;;;;;;;;;10543223;28;20059;-85
2023/07/14 21:29:40;;;;;;;10.98;6.68;;;;;;;;;;10547430;28;20040;-85
2023/07/14 21:34:41;;;;;;;11.05;7.00;;;;;;;;;;10541565;28;20039;-85
2023/07/14 21:39:42;;;;;;;10.35;6.97;;;;;;;;;;10565352;28;20414;-85
2023/07/14 21:44:44;;;;;;;14.02;7.43;;;;;;;;;;10544075;28;20118;-86
2023/07/14 21:49:45;;;;;;;11.25;7.38;;;;;;;;;;10519939;28;20036;-84
2023/07/14 21:54:46;;;;;;;12.05;8.07;;;;;;;;;;10541230;28;20044;-85
2023/07/14 21:59:46;;;;;;;13.45;8.50;;;;;;;;;;10536773;28;20483;-86
2023/07/14 22:04:47;;;;;;;13.77;7.65;;;;;;;;;;10535418;28;20039;-85
2023/07/14 22:09:49;;;;;;;13.35;8.30;;;;;;;;;;10540557;28;20046;-84
2023/07/14 22:14:50;;;;;;;11.27;7.55;;;;;;;;;;10532879;28;20117;-84
2023/07/14 22:19:51;;;;;;;17.60;8.32;;;;;;;;;;10544726;28;20035;-86
2023/07/14 22:24:55;;;;;;;11.90;7.95;;;;;;;;;;10529390;28;20071;-84
2023/07/14 22:29:56;;;;;;;11.80;8.15;;;;;;;;;;10533826;28;20039;-87
2023/07/14 22:34:58;;;;;;;15.18;7.57;;;;;;;;;;10540412;28;20043;-85
2023/07/14 22:39:59;;;;;;;14.23;8.52;;;;;;;;;;10527063;28;20454;-86
2023/07/14 22:45:00;;;;;;;15.00;8.77;;;;;;;;;;10529384;28;20028;-85
2023/07/14 22:50:01;;;;;;;15.10;7.88;;;;;;;;;;10527282;28;20051;-84
2023/07/14 22:55:03;;;;;;;13.38;7.90;;;;;;;;;;10542162;28;20547;-84
2023/07/14 23:00:04;;;;;;;15.50;7.15;;;;;;;;;;10540674;28;20027;-86
2023/07/14 23:05:06;;;;;;;14.15;8.27;;;;;;;;;;10534916;28;20103;-87
2023/07/14 23:10:08;;;;;;;15.10;7.95;;;;;;;;;;10525348;28;20044;-85
2023/07/14 23:15:14;;;;;;;12.75;7.38;;;;;;;;;;10536148;28;20356;-85
2023/07/14 23:20:15;;;;;;;12.38;7.45;;;;;;;;;;10552406;28;20031;-84
2023/07/14 23:25:18;;;;;;;10.30;6.68;;;;;;;;;;10531365;28;20063;-85
2023/07/14 23:30:19;;;;;;;14.35;7.78;;;;;;;;;;10533787;28;20036;-85
2023/07/14 23:35:21;;;;;;;11.07;7.22;;;;;;;;;;10538037;28;20032;-85
2023/07/14 23:40:23;;;;;;;12.25;7.82;;;;;;;;;;10523210;28;20036;-85
2023/07/14 23:45:25;;;;;;;13.73;8.02;;;;;;;;;;10531291;28;20050;-85
2023/07/14 23:50:28;;;;;;;11.40;7.07;;;;;;;;;;10532252;28;20043;-84
2023/07/14 23:55:31;;;;;;;11.98;6.53;;;;;;;;;;10539210;28;20118;-86
